Terminal Aerodrome Forecast
Issued by NWS

Home | Current Version | Previous Version | Text Only | Print | Product List | Glossary On
Versions: 1 2 3 4 5 6 7 8 9 10 11 12 13 14 15 16 17
000
FTUS42 KMLB 071739
TAFISM
TAF
KISM 071739Z 0718/0818 29018G28KT P6SM SCT025
     FM080000 30009KT P6SM SKC
     FM080600 28005KT P6SM FEW250
     FM081600 27012G20KT P6SM FEW045 SCT250=

USA.gov is the U.S. government's official web portal to all federal, state and local government web resources and services.